sensor_id;sensor_type;location;lat;lon;timestamp;P1;durP1;ratioP1;P2;durP2;ratioP2
68577;SDS011;61668;45.388;11.784;2022-12-24T00:01:11;91.10;;;44.50;;
68577;SDS011;61668;45.388;11.784;2022-12-24T00:03:37;84.10;;;41.90;;
68577;SDS011;61668;45.388;11.784;2022-12-24T00:06:04;90.80;;;44.30;;
68577;SDS011;61668;45.388;11.784;2022-12-24T00:08:34;97.40;;;48.30;;
68577;SDS011;61668;45.388;11.784;2022-12-24T00:11:00;88.60;;;45.40;;
68577;SDS011;61668;45.388;11.784;2022-12-24T00:13:26;85.70;;;40.70;;
68577;SDS011;61668;45.388;11.784;2022-12-24T00:15:52;95.20;;;43.10;;
68577;SDS011;61668;45.388;11.784;2022-12-24T00:18:18;145.70;;;75.60;;
68577;SDS011;61668;45.388;11.784;2022-12-24T00:20:47;97.60;;;49.60;;
68577;SDS011;61668;45.388;11.784;2022-12-24T00:23:14;80.60;;;40.40;;
68577;SDS011;61668;45.388;11.784;2022-12-24T00:25:40;89.20;;;42.20;;
68577;SDS011;61668;45.388;11.784;2022-12-24T00:28:06;91.60;;;44.20;;
68577;SDS011;61668;45.388;11.784;2022-12-24T00:30:32;84.30;;;42.20;;
68577;SDS011;61668;45.388;11.784;2022-12-24T00:32:57;82.30;;;39.60;;
68577;SDS011;61668;45.388;11.784;2022-12-24T00:35:23;87.50;;;39.60;;
68577;SDS011;61668;45.388;11.784;2022-12-24T00:37:49;84.80;;;41.60;;
68577;SDS011;61668;45.388;11.784;2022-12-24T00:40:16;92.40;;;44.40;;
68577;SDS011;61668;45.388;11.784;2022-12-24T00:42:42;96.00;;;46.60;;
68577;SDS011;61668;45.388;11.784;2022-12-24T00:45:09;92.00;;;43.80;;
68577;SDS011;61668;45.388;11.784;2022-12-24T00:47:36;86.10;;;42.00;;
68577;SDS011;61668;45.388;11.784;2022-12-24T00:50:02;90.10;;;43.20;;
68577;SDS011;61668;45.388;11.784;2022-12-24T00:52:28;89.80;;;42.40;;
68577;SDS011;61668;45.388;11.784;2022-12-24T00:54:54;90.40;;;43.20;;
68577;SDS011;61668;45.388;11.784;2022-12-24T00:57:19;82.00;;;40.10;;
68577;SDS011;61668;45.388;11.784;2022-12-24T00:59:45;83.70;;;42.40;;
68577;SDS011;61668;45.388;11.784;2022-12-24T01:02:10;85.30;;;42.60;;
68577;SDS011;61668;45.388;11.784;2022-12-24T01:04:36;84.00;;;41.80;;
68577;SDS011;61668;45.388;11.784;2022-12-24T01:07:20;84.30;;;44.30;;
68577;SDS011;61668;45.388;11.784;2022-12-24T01:09:46;91.70;;;42.90;;
68577;SDS011;61668;45.388;11.784;2022-12-24T01:12:11;89.10;;;42.80;;
68577;SDS011;61668;45.388;11.784;2022-12-24T01:14:37;92.00;;;43.80;;
68577;SDS011;61668;45.388;11.784;2022-12-24T01:17:04;80.90;;;41.80;;
68577;SDS011;61668;45.388;11.784;2022-12-24T01:19:30;86.30;;;42.70;;
68577;SDS011;61668;45.388;11.784;2022-12-24T01:21:57;91.60;;;42.30;;
68577;SDS011;61668;45.388;11.784;2022-12-24T01:24:22;87.00;;;44.70;;
68577;SDS011;61668;45.388;11.784;2022-12-24T01:26:48;88.60;;;43.40;;
68577;SDS011;61668;45.388;11.784;2022-12-24T01:29:14;78.10;;;39.60;;
68577;SDS011;61668;45.388;11.784;2022-12-24T01:31:40;81.80;;;38.10;;
68577;SDS011;61668;45.388;11.784;2022-12-24T01:34:06;77.70;;;40.60;;
68577;SDS011;61668;45.388;11.784;2022-12-24T01:36:32;81.50;;;40.90;;
68577;SDS011;61668;45.388;11.784;2022-12-24T01:38:57;84.40;;;41.80;;
68577;SDS011;61668;45.388;11.784;2022-12-24T01:41:24;81.00;;;40.20;;
68577;SDS011;61668;45.388;11.784;2022-12-24T01:44:22;79.30;;;38.00;;
68577;SDS011;61668;45.388;11.784;2022-12-24T01:47:05;80.20;;;38.00;;
68577;SDS011;61668;45.388;11.784;2022-12-24T01:49:36;82.80;;;40.10;;
68577;SDS011;61668;45.388;11.784;2022-12-24T01:52:18;86.20;;;40.20;;
68577;SDS011;61668;45.388;11.784;2022-12-24T01:54:57;77.20;;;39.50;;
68577;SDS011;61668;45.388;11.784;2022-12-24T01:57:37;88.20;;;41.40;;
68577;SDS011;61668;45.388;11.784;2022-12-24T02:00:09;84.60;;;40.90;;
68577;SDS011;61668;45.388;11.784;2022-12-24T02:02:39;79.90;;;38.80;;
68577;SDS011;61668;45.388;11.784;2022-12-24T02:07:51;72.00;;;37.10;;
68577;SDS011;61668;45.388;11.784;2022-12-24T02:10:18;80.20;;;39.60;;
68577;SDS011;61668;45.388;11.784;2022-12-24T02:12:45;85.90;;;41.00;;
68577;SDS011;61668;45.388;11.784;2022-12-24T02:15:13;87.10;;;40.60;;
68577;SDS011;61668;45.388;11.784;2022-12-24T02:18:03;89.40;;;43.30;;
68577;SDS011;61668;45.388;11.784;2022-12-24T02:29:58;83.10;;;38.50;;
68577;SDS011;61668;45.388;11.784;2022-12-24T02:32:44;77.00;;;36.90;;
68577;SDS011;61668;45.388;11.784;2022-12-24T02:38:42;84.50;;;40.90;;
68577;SDS011;61668;45.388;11.784;2022-12-24T02:41:20;73.00;;;36.60;;
68577;SDS011;61668;45.388;11.784;2022-12-24T02:43:50;79.50;;;39.40;;
68577;SDS011;61668;45.388;11.784;2022-12-24T02:46:22;81.40;;;40.30;;
68577;SDS011;61668;45.388;11.784;2022-12-24T02:48:50;85.50;;;42.00;;
68577;SDS011;61668;45.388;11.784;2022-12-24T02:51:21;79.40;;;40.50;;
68577;SDS011;61668;45.388;11.784;2022-12-24T02:53:48;82.10;;;39.70;;
68577;SDS011;61668;45.388;11.784;2022-12-24T03:02:18;84.10;;;40.10;;
68577;SDS011;61668;45.388;11.784;2022-12-24T03:04:58;74.40;;;38.10;;
68577;SDS011;61668;45.388;11.784;2022-12-24T03:07:42;84.80;;;40.80;;
68577;SDS011;61668;45.388;11.784;2022-12-24T03:10:54;81.80;;;41.70;;
68577;SDS011;61668;45.388;11.784;2022-12-24T03:13:23;82.00;;;38.50;;
68577;SDS011;61668;45.388;11.784;2022-12-24T03:15:50;76.30;;;39.00;;
68577;SDS011;61668;45.388;11.784;2022-12-24T03:18:20;76.60;;;38.80;;
68577;SDS011;61668;45.388;11.784;2022-12-24T03:20:55;81.10;;;40.90;;
68577;SDS011;61668;45.388;11.784;2022-12-24T03:23:25;86.00;;;40.70;;
68577;SDS011;61668;45.388;11.784;2022-12-24T03:25:50;83.60;;;40.30;;
68577;SDS011;61668;45.388;11.784;2022-12-24T03:28:18;86.40;;;41.20;;
68577;SDS011;61668;45.388;11.784;2022-12-24T03:30:46;86.10;;;41.60;;
68577;SDS011;61668;45.388;11.784;2022-12-24T03:33:14;82.10;;;39.60;;
68577;SDS011;61668;45.388;11.784;2022-12-24T03:35:40;82.40;;;39.80;;
68577;SDS011;61668;45.388;11.784;2022-12-24T03:38:05;79.80;;;40.20;;
68577;SDS011;61668;45.388;11.784;2022-12-24T03:40:31;79.10;;;39.30;;
68577;SDS011;61668;45.388;11.784;2022-12-24T03:42:57;81.20;;;40.00;;
68577;SDS011;61668;45.388;11.784;2022-12-24T03:45:23;74.80;;;37.80;;
68577;SDS011;61668;45.388;11.784;2022-12-24T03:47:49;81.80;;;40.30;;
68577;SDS011;61668;45.388;11.784;2022-12-24T03:50:14;86.90;;;41.70;;
68577;SDS011;61668;45.388;11.784;2022-12-24T03:52:40;83.50;;;39.20;;
68577;SDS011;61668;45.388;11.784;2022-12-24T03:55:06;76.10;;;37.50;;
68577;SDS011;61668;45.388;11.784;2022-12-24T03:57:31;75.10;;;39.10;;
68577;SDS011;61668;45.388;11.784;2022-12-24T03:59:57;81.60;;;38.60;;
68577;SDS011;61668;45.388;11.784;2022-12-24T04:02:23;83.70;;;40.80;;
68577;SDS011;61668;45.388;11.784;2022-12-24T04:04:49;83.00;;;40.40;;
68577;SDS011;61668;45.388;11.784;2022-12-24T04:07:14;75.00;;;38.20;;
68577;SDS011;61668;45.388;11.784;2022-12-24T04:09:40;81.90;;;40.80;;
68577;SDS011;61668;45.388;11.784;2022-12-24T04:12:06;83.00;;;39.40;;
68577;SDS011;61668;45.388;11.784;2022-12-24T04:14:32;79.10;;;38.70;;
68577;SDS011;61668;45.388;11.784;2022-12-24T04:16:58;82.10;;;40.90;;
68577;SDS011;61668;45.388;11.784;2022-12-24T04:19:23;75.20;;;38.10;;
68577;SDS011;61668;45.388;11.784;2022-12-24T04:21:49;79.40;;;40.10;;
68577;SDS011;61668;45.388;11.784;2022-12-24T04:24:14;76.80;;;39.80;;
68577;SDS011;61668;45.388;11.784;2022-12-24T04:26:40;78.00;;;41.30;;
68577;SDS011;61668;45.388;11.784;2022-12-24T04:29:05;84.20;;;40.60;;
68577;SDS011;61668;45.388;11.784;2022-12-24T04:31:31;83.80;;;39.20;;
68577;SDS011;61668;45.388;11.784;2022-12-24T04:33:57;86.40;;;39.70;;
68577;SDS011;61668;45.388;11.784;2022-12-24T04:36:22;79.60;;;39.20;;
68577;SDS011;61668;45.388;11.784;2022-12-24T04:38:48;77.20;;;39.60;;
68577;SDS011;61668;45.388;11.784;2022-12-24T04:41:16;77.20;;;35.70;;
68577;SDS011;61668;45.388;11.784;2022-12-24T04:43:44;76.70;;;38.30;;
68577;SDS011;61668;45.388;11.784;2022-12-24T04:46:14;85.40;;;41.90;;
68577;SDS011;61668;45.388;11.784;2022-12-24T04:48:47;78.20;;;38.50;;
68577;SDS011;61668;45.388;11.784;2022-12-24T04:51:14;74.80;;;39.80;;
68577;SDS011;61668;45.388;11.784;2022-12-24T04:53:41;77.80;;;39.90;;
68577;SDS011;61668;45.388;11.784;2022-12-24T04:56:33;82.60;;;41.30;;
68577;SDS011;61668;45.388;11.784;2022-12-24T04:58:59;72.00;;;38.70;;
68577;SDS011;61668;45.388;11.784;2022-12-24T05:01:28;74.30;;;37.20;;
68577;SDS011;61668;45.388;11.784;2022-12-24T05:03:55;82.80;;;38.90;;
68577;SDS011;61668;45.388;11.784;2022-12-24T05:06:31;70.50;;;37.00;;
68577;SDS011;61668;45.388;11.784;2022-12-24T05:08:57;74.60;;;37.40;;
68577;SDS011;61668;45.388;11.784;2022-12-24T05:11:24;73.00;;;39.40;;
68577;SDS011;61668;45.388;11.784;2022-12-24T05:13:49;74.20;;;36.80;;
68577;SDS011;61668;45.388;11.784;2022-12-24T05:16:16;78.50;;;39.30;;
68577;SDS011;61668;45.388;11.784;2022-12-24T05:18:44;77.40;;;40.10;;
68577;SDS011;61668;45.388;11.784;2022-12-24T05:21:16;78.10;;;39.00;;
68577;SDS011;61668;45.388;11.784;2022-12-24T05:23:43;77.70;;;40.50;;
68577;SDS011;61668;45.388;11.784;2022-12-24T05:26:31;89.50;;;42.30;;
68577;SDS011;61668;45.388;11.784;2022-12-24T05:29:09;85.10;;;41.70;;
68577;SDS011;61668;45.388;11.784;2022-12-24T05:31:39;81.70;;;40.60;;
68577;SDS011;61668;45.388;11.784;2022-12-24T05:34:07;74.70;;;39.30;;
68577;SDS011;61668;45.388;11.784;2022-12-24T05:36:33;81.10;;;38.50;;
68577;SDS011;61668;45.388;11.784;2022-12-24T05:38:59;78.10;;;39.80;;
68577;SDS011;61668;45.388;11.784;2022-12-24T05:41:25;83.90;;;38.80;;
68577;SDS011;61668;45.388;11.784;2022-12-24T05:43:51;83.90;;;41.30;;
68577;SDS011;61668;45.388;11.784;2022-12-24T05:46:19;81.40;;;39.60;;
68577;SDS011;61668;45.388;11.784;2022-12-24T05:48:46;73.10;;;38.90;;
68577;SDS011;61668;45.388;11.784;2022-12-24T05:51:14;80.30;;;40.50;;
68577;SDS011;61668;45.388;11.784;2022-12-24T05:53:44;73.90;;;40.70;;
68577;SDS011;61668;45.388;11.784;2022-12-24T05:56:13;75.20;;;40.60;;
68577;SDS011;61668;45.388;11.784;2022-12-24T05:58:41;77.60;;;38.90;;
68577;SDS011;61668;45.388;11.784;2022-12-24T06:01:09;79.50;;;38.30;;
68577;SDS011;61668;45.388;11.784;2022-12-24T06:03:35;74.20;;;40.00;;
68577;SDS011;61668;45.388;11.784;2022-12-24T06:06:07;73.50;;;37.40;;
68577;SDS011;61668;45.388;11.784;2022-12-24T06:08:36;95.90;;;45.80;;
68577;SDS011;61668;45.388;11.784;2022-12-24T06:11:07;83.30;;;40.00;;
68577;SDS011;61668;45.388;11.784;2022-12-24T06:13:36;74.60;;;38.90;;
68577;SDS011;61668;45.388;11.784;2022-12-24T06:16:05;78.80;;;39.60;;
68577;SDS011;61668;45.388;11.784;2022-12-24T06:18:33;74.10;;;38.00;;
68577;SDS011;61668;45.388;11.784;2022-12-24T06:21:00;106.10;;;48.10;;
68577;SDS011;61668;45.388;11.784;2022-12-24T06:23:28;81.70;;;41.20;;
68577;SDS011;61668;45.388;11.784;2022-12-24T06:25:56;75.00;;;36.80;;
68577;SDS011;61668;45.388;11.784;2022-12-24T06:28:23;79.10;;;37.70;;
68577;SDS011;61668;45.388;11.784;2022-12-24T06:30:49;71.30;;;36.60;;
68577;SDS011;61668;45.388;11.784;2022-12-24T06:33:16;73.60;;;37.20;;
68577;SDS011;61668;45.388;11.784;2022-12-24T06:35:44;69.50;;;37.00;;
68577;SDS011;61668;45.388;11.784;2022-12-24T06:38:10;222.00;;;97.70;;
68577;SDS011;61668;45.388;11.784;2022-12-24T06:40:41;91.60;;;45.80;;
68577;SDS011;61668;45.388;11.784;2022-12-24T06:43:07;72.50;;;38.80;;
68577;SDS011;61668;45.388;11.784;2022-12-24T06:45:33;74.70;;;38.80;;
68577;SDS011;61668;45.388;11.784;2022-12-24T06:47:59;75.70;;;37.80;;
68577;SDS011;61668;45.388;11.784;2022-12-24T06:50:25;75.90;;;39.40;;
68577;SDS011;61668;45.388;11.784;2022-12-24T06:52:51;78.00;;;39.10;;
68577;SDS011;61668;45.388;11.784;2022-12-24T06:55:16;123.70;;;63.90;;
68577;SDS011;61668;45.388;11.784;2022-12-24T06:57:42;75.10;;;38.90;;
68577;SDS011;61668;45.388;11.784;2022-12-24T07:00:10;71.80;;;37.10;;
68577;SDS011;61668;45.388;11.784;2022-12-24T07:02:40;78.20;;;41.80;;
68577;SDS011;61668;45.388;11.784;2022-12-24T07:05:10;73.00;;;37.90;;
68577;SDS011;61668;45.388;11.784;2022-12-24T07:07:38;80.20;;;41.20;;
68577;SDS011;61668;45.388;11.784;2022-12-24T07:10:06;82.80;;;39.20;;
68577;SDS011;61668;45.388;11.784;2022-12-24T07:12:33;67.50;;;36.50;;
68577;SDS011;61668;45.388;11.784;2022-12-24T07:14:58;69.80;;;35.40;;
68577;SDS011;61668;45.388;11.784;2022-12-24T07:17:24;71.40;;;37.30;;
68577;SDS011;61668;45.388;11.784;2022-12-24T07:19:49;70.90;;;37.40;;
68577;SDS011;61668;45.388;11.784;2022-12-24T07:22:15;86.80;;;45.00;;
68577;SDS011;61668;45.388;11.784;2022-12-24T07:24:40;78.00;;;38.00;;
68577;SDS011;61668;45.388;11.784;2022-12-24T07:27:06;72.90;;;39.60;;
68577;SDS011;61668;45.388;11.784;2022-12-24T07:29:33;73.70;;;38.50;;
68577;SDS011;61668;45.388;11.784;2022-12-24T07:31:58;76.40;;;38.60;;
68577;SDS011;61668;45.388;11.784;2022-12-24T07:34:24;71.70;;;35.20;;
68577;SDS011;61668;45.388;11.784;2022-12-24T07:36:49;73.70;;;38.30;;
68577;SDS011;61668;45.388;11.784;2022-12-24T07:39:15;70.00;;;38.50;;
68577;SDS011;61668;45.388;11.784;2022-12-24T07:41:41;69.00;;;37.20;;
68577;SDS011;61668;45.388;11.784;2022-12-24T07:44:11;71.10;;;37.00;;
68577;SDS011;61668;45.388;11.784;2022-12-24T07:46:37;73.00;;;38.40;;
68577;SDS011;61668;45.388;11.784;2022-12-24T07:49:03;74.00;;;37.20;;
68577;SDS011;61668;45.388;11.784;2022-12-24T07:51:29;78.70;;;40.60;;
68577;SDS011;61668;45.388;11.784;2022-12-24T07:53:54;73.10;;;38.60;;
68577;SDS011;61668;45.388;11.784;2022-12-24T07:56:20;80.70;;;41.80;;
68577;SDS011;61668;45.388;11.784;2022-12-24T07:58:45;81.10;;;39.30;;
68577;SDS011;61668;45.388;11.784;2022-12-24T08:01:11;76.50;;;40.10;;
68577;SDS011;61668;45.388;11.784;2022-12-24T08:03:37;73.70;;;39.10;;
68577;SDS011;61668;45.388;11.784;2022-12-24T08:06:03;71.00;;;38.30;;
68577;SDS011;61668;45.388;11.784;2022-12-24T08:08:29;76.80;;;41.20;;
68577;SDS011;61668;45.388;11.784;2022-12-24T08:11:03;75.50;;;39.20;;
68577;SDS011;61668;45.388;11.784;2022-12-24T08:13:30;87.30;;;46.10;;
68577;SDS011;61668;45.388;11.784;2022-12-24T08:15:57;80.40;;;44.30;;
68577;SDS011;61668;45.388;11.784;2022-12-24T08:18:24;71.10;;;40.60;;
68577;SDS011;61668;45.388;11.784;2022-12-24T08:20:50;72.70;;;41.10;;
68577;SDS011;61668;45.388;11.784;2022-12-24T08:23:16;78.70;;;40.50;;
68577;SDS011;61668;45.388;11.784;2022-12-24T08:25:44;78.80;;;42.20;;
68577;SDS011;61668;45.388;11.784;2022-12-24T08:28:12;78.30;;;42.10;;
68577;SDS011;61668;45.388;11.784;2022-12-24T08:30:40;74.80;;;41.90;;
68577;SDS011;61668;45.388;11.784;2022-12-24T08:33:05;84.40;;;47.50;;
68577;SDS011;61668;45.388;11.784;2022-12-24T08:35:31;79.50;;;42.10;;
68577;SDS011;61668;45.388;11.784;2022-12-24T08:37:57;83.50;;;43.30;;
68577;SDS011;61668;45.388;11.784;2022-12-24T08:40:22;85.00;;;43.90;;
68577;SDS011;61668;45.388;11.784;2022-12-24T08:42:48;79.50;;;41.30;;
68577;SDS011;61668;45.388;11.784;2022-12-24T08:45:14;77.70;;;42.00;;
68577;SDS011;61668;45.388;11.784;2022-12-24T08:47:40;78.00;;;42.00;;
68577;SDS011;61668;45.388;11.784;2022-12-24T08:50:07;76.20;;;41.40;;
68577;SDS011;61668;45.388;11.784;2022-12-24T08:52:34;78.10;;;42.00;;
68577;SDS011;61668;45.388;11.784;2022-12-24T08:55:00;76.30;;;40.00;;
68577;SDS011;61668;45.388;11.784;2022-12-24T08:57:26;80.80;;;43.50;;
68577;SDS011;61668;45.388;11.784;2022-12-24T08:59:51;77.40;;;41.90;;
68577;SDS011;61668;45.388;11.784;2022-12-24T09:02:17;78.50;;;40.30;;
68577;SDS011;61668;45.388;11.784;2022-12-24T09:04:43;70.90;;;38.40;;
68577;SDS011;61668;45.388;11.784;2022-12-24T09:07:09;74.30;;;39.40;;
68577;SDS011;61668;45.388;11.784;2022-12-24T09:09:35;72.20;;;41.00;;
68577;SDS011;61668;45.388;11.784;2022-12-24T09:12:04;68.20;;;39.70;;
68577;SDS011;61668;45.388;11.784;2022-12-24T09:14:30;72.90;;;39.60;;
68577;SDS011;61668;45.388;11.784;2022-12-24T09:16:56;64.90;;;35.30;;
68577;SDS011;61668;45.388;11.784;2022-12-24T09:19:21;62.80;;;35.40;;
68577;SDS011;61668;45.388;11.784;2022-12-24T09:21:47;54.60;;;32.30;;
68577;SDS011;61668;45.388;11.784;2022-12-24T09:24:13;55.20;;;29.30;;
68577;SDS011;61668;45.388;11.784;2022-12-24T09:26:40;57.30;;;31.40;;
68577;SDS011;61668;45.388;11.784;2022-12-24T09:29:07;50.70;;;29.20;;
68577;SDS011;61668;45.388;11.784;2022-12-24T09:31:34;48.10;;;26.80;;
68577;SDS011;61668;45.388;11.784;2022-12-24T09:34:00;51.30;;;28.70;;
68577;SDS011;61668;45.388;11.784;2022-12-24T09:36:25;48.20;;;25.50;;
68577;SDS011;61668;45.388;11.784;2022-12-24T09:38:51;43.10;;;25.10;;
68577;SDS011;61668;45.388;11.784;2022-12-24T09:41:46;46.70;;;25.10;;
68577;SDS011;61668;45.388;11.784;2022-12-24T09:44:39;46.80;;;24.90;;
68577;SDS011;61668;45.388;11.784;2022-12-24T09:50:45;38.00;;;22.70;;
68577;SDS011;61668;45.388;11.784;2022-12-24T09:53:26;40.10;;;23.90;;
68577;SDS011;61668;45.388;11.784;2022-12-24T09:56:11;62.90;;;33.70;;
68577;SDS011;61668;45.388;11.784;2022-12-24T09:58:51;42.80;;;25.40;;
68577;SDS011;61668;45.388;11.784;2022-12-24T10:01:21;43.10;;;23.30;;
68577;SDS011;61668;45.388;11.784;2022-12-24T10:03:46;42.90;;;25.10;;
68577;SDS011;61668;45.388;11.784;2022-12-24T10:06:20;45.30;;;25.00;;
68577;SDS011;61668;45.388;11.784;2022-12-24T10:12:10;43.30;;;23.50;;
68577;SDS011;61668;45.388;11.784;2022-12-24T10:15:07;46.10;;;25.60;;
68577;SDS011;61668;45.388;11.784;2022-12-24T10:17:44;54.70;;;33.50;;
68577;SDS011;61668;45.388;11.784;2022-12-24T10:34:40;51.30;;;27.80;;
68577;SDS011;61668;45.388;11.784;2022-12-24T10:37:21;52.00;;;26.70;;
68577;SDS011;61668;45.388;11.784;2022-12-24T10:39:48;43.10;;;25.80;;
68577;SDS011;61668;45.388;11.784;2022-12-24T10:42:14;53.50;;;28.20;;
68577;SDS011;61668;45.388;11.784;2022-12-24T10:44:54;68.10;;;33.80;;
68577;SDS011;61668;45.388;11.784;2022-12-24T10:47:23;60.70;;;31.70;;
68577;SDS011;61668;45.388;11.784;2022-12-24T10:52:28;54.60;;;28.70;;
68577;SDS011;61668;45.388;11.784;2022-12-24T10:58:00;50.30;;;28.20;;
68577;SDS011;61668;45.388;11.784;2022-12-24T11:00:30;54.50;;;28.30;;
68577;SDS011;61668;45.388;11.784;2022-12-24T11:03:19;59.60;;;27.60;;
68577;SDS011;61668;45.388;11.784;2022-12-24T11:05:59;55.70;;;29.10;;
68577;SDS011;61668;45.388;11.784;2022-12-24T11:08:26;50.70;;;28.50;;
68577;SDS011;61668;45.388;11.784;2022-12-24T11:11:04;50.40;;;28.70;;
68577;SDS011;61668;45.388;11.784;2022-12-24T11:16:27;47.00;;;27.50;;
68577;SDS011;61668;45.388;11.784;2022-12-24T11:18:57;51.60;;;28.10;;
68577;SDS011;61668;45.388;11.784;2022-12-24T11:21:33;50.20;;;28.00;;
68577;SDS011;61668;45.388;11.784;2022-12-24T11:24:15;54.60;;;28.20;;
68577;SDS011;61668;45.388;11.784;2022-12-24T11:26:52;49.20;;;27.30;;
68577;SDS011;61668;45.388;11.784;2022-12-24T11:31:52;54.80;;;29.50;;
68577;SDS011;61668;45.388;11.784;2022-12-24T11:34:42;51.90;;;30.30;;
68577;SDS011;61668;45.388;11.784;2022-12-24T11:39:40;46.20;;;27.30;;
68577;SDS011;61668;45.388;11.784;2022-12-24T11:42:31;53.20;;;27.60;;
68577;SDS011;61668;45.388;11.784;2022-12-24T11:45:04;48.70;;;27.90;;
68577;SDS011;61668;45.388;11.784;2022-12-24T11:47:51;120.40;;;58.60;;
68577;SDS011;61668;45.388;11.784;2022-12-24T11:50:19;79.30;;;40.20;;
68577;SDS011;61668;45.388;11.784;2022-12-24T11:52:49;51.00;;;29.30;;
68577;SDS011;61668;45.388;11.784;2022-12-24T11:55:27;56.80;;;31.60;;
68577;SDS011;61668;45.388;11.784;2022-12-24T12:01:24;54.70;;;29.80;;
68577;SDS011;61668;45.388;11.784;2022-12-24T12:06:53;50.80;;;27.60;;
68577;SDS011;61668;45.388;11.784;2022-12-24T12:09:48;55.00;;;30.80;;
68577;SDS011;61668;45.388;11.784;2022-12-24T12:12:21;52.90;;;28.70;;
68577;SDS011;61668;45.388;11.784;2022-12-24T12:20:18;55.70;;;30.30;;
68577;SDS011;61668;45.388;11.784;2022-12-24T12:25:26;58.00;;;30.40;;
68577;SDS011;61668;45.388;11.784;2022-12-24T12:27:55;59.20;;;31.30;;
68577;SDS011;61668;45.388;11.784;2022-12-24T12:30:22;49.90;;;29.40;;
68577;SDS011;61668;45.388;11.784;2022-12-24T12:35:44;56.50;;;30.70;;
68577;SDS011;61668;45.388;11.784;2022-12-24T12:38:17;58.20;;;32.30;;
68577;SDS011;61668;45.388;11.784;2022-12-24T12:46:17;55.70;;;30.80;;
68577;SDS011;61668;45.388;11.784;2022-12-24T12:52:05;58.00;;;31.00;;
68577;SDS011;61668;45.388;11.784;2022-12-24T12:57:36;52.70;;;31.40;;
68577;SDS011;61668;45.388;11.784;2022-12-24T13:00:11;55.20;;;32.00;;
68577;SDS011;61668;45.388;11.784;2022-12-24T13:14:56;56.80;;;30.00;;
68577;SDS011;61668;45.388;11.784;2022-12-24T13:20:24;53.70;;;28.90;;
68577;SDS011;61668;45.388;11.784;2022-12-24T13:22:59;57.40;;;30.10;;
68577;SDS011;61668;45.388;11.784;2022-12-24T13:25:45;54.60;;;29.30;;
68577;SDS011;61668;45.388;11.784;2022-12-24T13:36:09;51.50;;;27.40;;
68577;SDS011;61668;45.388;11.784;2022-12-24T13:38:57;51.20;;;28.20;;
68577;SDS011;61668;45.388;11.784;2022-12-24T13:47:14;54.80;;;28.40;;
68577;SDS011;61668;45.388;11.784;2022-12-24T13:49:48;52.50;;;28.90;;
68577;SDS011;61668;45.388;11.784;2022-12-24T13:52:20;54.00;;;28.70;;
68577;SDS011;61668;45.388;11.784;2022-12-24T14:05:38;46.40;;;26.70;;
68577;SDS011;61668;45.388;11.784;2022-12-24T14:08:13;49.90;;;29.50;;
68577;SDS011;61668;45.388;11.784;2022-12-24T14:11:22;46.50;;;25.70;;
68577;SDS011;61668;45.388;11.784;2022-12-24T14:13:52;49.20;;;26.90;;
68577;SDS011;61668;45.388;11.784;2022-12-24T14:16:24;45.30;;;26.40;;
68577;SDS011;61668;45.388;11.784;2022-12-24T14:21:48;47.80;;;27.30;;
68577;SDS011;61668;45.388;11.784;2022-12-24T14:24:19;48.00;;;27.80;;
68577;SDS011;61668;45.388;11.784;2022-12-24T14:26:52;48.70;;;29.20;;
68577;SDS011;61668;45.388;11.784;2022-12-24T14:29:31;49.00;;;28.30;;
68577;SDS011;61668;45.388;11.784;2022-12-24T14:32:00;47.00;;;26.00;;
68577;SDS011;61668;45.388;11.784;2022-12-24T14:34:29;46.60;;;26.80;;
68577;SDS011;61668;45.388;11.784;2022-12-24T14:36:56;46.50;;;26.80;;
68577;SDS011;61668;45.388;11.784;2022-12-24T14:39:33;49.80;;;28.40;;
68577;SDS011;61668;45.388;11.784;2022-12-24T14:42:06;50.80;;;28.20;;
68577;SDS011;61668;45.388;11.784;2022-12-24T14:45:12;47.30;;;26.80;;
68577;SDS011;61668;45.388;11.784;2022-12-24T14:50:59;50.70;;;28.60;;
68577;SDS011;61668;45.388;11.784;2022-12-24T14:56:24;52.90;;;29.10;;
68577;SDS011;61668;45.388;11.784;2022-12-24T14:58:50;52.70;;;31.90;;
68577;SDS011;61668;45.388;11.784;2022-12-24T15:01:26;62.30;;;36.10;;
68577;SDS011;61668;45.388;11.784;2022-12-24T15:04:25;61.50;;;34.50;;
68577;SDS011;61668;45.388;11.784;2022-12-24T15:06:53;56.80;;;32.20;;
68577;SDS011;61668;45.388;11.784;2022-12-24T15:09:24;53.20;;;30.90;;
68577;SDS011;61668;45.388;11.784;2022-12-24T15:11:55;51.80;;;29.90;;
68577;SDS011;61668;45.388;11.784;2022-12-24T15:14:25;55.50;;;31.80;;
68577;SDS011;61668;45.388;11.784;2022-12-24T15:17:00;59.60;;;31.70;;
68577;SDS011;61668;45.388;11.784;2022-12-24T15:21:58;61.20;;;35.20;;
68577;SDS011;61668;45.388;11.784;2022-12-24T15:27:02;56.10;;;31.20;;
68577;SDS011;61668;45.388;11.784;2022-12-24T15:29:46;55.20;;;30.10;;
68577;SDS011;61668;45.388;11.784;2022-12-24T15:32:15;53.60;;;28.30;;
68577;SDS011;61668;45.388;11.784;2022-12-24T15:34:53;52.50;;;28.30;;
68577;SDS011;61668;45.388;11.784;2022-12-24T15:37:33;58.50;;;33.30;;
68577;SDS011;61668;45.388;11.784;2022-12-24T15:40:21;66.30;;;33.70;;
68577;SDS011;61668;45.388;11.784;2022-12-24T15:42:47;66.00;;;37.20;;
68577;SDS011;61668;45.388;11.784;2022-12-24T15:45:16;69.10;;;37.00;;
68577;SDS011;61668;45.388;11.784;2022-12-24T15:50:31;67.90;;;36.50;;
68577;SDS011;61668;45.388;11.784;2022-12-24T15:53:01;64.80;;;36.10;;
68577;SDS011;61668;45.388;11.784;2022-12-24T15:58:24;65.80;;;36.70;;
68577;SDS011;61668;45.388;11.784;2022-12-24T16:01:23;64.20;;;35.80;;
68577;SDS011;61668;45.388;11.784;2022-12-24T16:06:18;78.20;;;38.60;;
68577;SDS011;61668;45.388;11.784;2022-12-24T16:08:45;69.60;;;38.80;;
68577;SDS011;61668;45.388;11.784;2022-12-24T16:16:14;71.10;;;40.50;;
68577;SDS011;61668;45.388;11.784;2022-12-24T16:18:54;83.90;;;41.90;;
68577;SDS011;61668;45.388;11.784;2022-12-24T16:21:28;73.50;;;38.90;;
68577;SDS011;61668;45.388;11.784;2022-12-24T16:24:03;83.10;;;42.60;;
68577;SDS011;61668;45.388;11.784;2022-12-24T16:26:33;83.90;;;46.70;;
68577;SDS011;61668;45.388;11.784;2022-12-24T16:28:59;83.00;;;45.40;;
68577;SDS011;61668;45.388;11.784;2022-12-24T16:31:34;77.90;;;42.80;;
68577;SDS011;61668;45.388;11.784;2022-12-24T16:34:01;79.50;;;43.40;;
68577;SDS011;61668;45.388;11.784;2022-12-24T16:36:30;83.30;;;42.80;;
68577;SDS011;61668;45.388;11.784;2022-12-24T16:38:59;85.20;;;45.80;;
68577;SDS011;61668;45.388;11.784;2022-12-24T16:41:43;78.90;;;42.40;;
68577;SDS011;61668;45.388;11.784;2022-12-24T16:44:27;73.80;;;41.00;;
68577;SDS011;61668;45.388;11.784;2022-12-24T16:46:54;83.00;;;43.70;;
68577;SDS011;61668;45.388;11.784;2022-12-24T16:49:20;81.30;;;43.20;;
68577;SDS011;61668;45.388;11.784;2022-12-24T16:51:46;75.60;;;42.20;;
68577;SDS011;61668;45.388;11.784;2022-12-24T16:54:13;76.40;;;40.40;;
68577;SDS011;61668;45.388;11.784;2022-12-24T16:56:40;69.60;;;38.50;;
68577;SDS011;61668;45.388;11.784;2022-12-24T16:59:17;80.00;;;43.10;;